Time;durP1;ratioP1;P1;durP2;ratioP2;P2;SDS_P1;SDS_P2;PMS_P1;PMS_P2;Temp;Humidity;BMP_temperature;BMP_pressure;BME280_temperature;BME280_humidity;BME280_pressure;Samples;Min_cycle;Max_cycle;Signal;HPM_P1;HPM_P2
2023/10/15 00:00:17;;;;;;;7.57;1.90;;;;;;;19.64;48.11;101816.13;16118248;19;132366;-46
2023/10/15 00:05:39;;;;;;;8.90;1.60;;;;;;;19.61;48.00;101811.03;16116298;19;129913;-46
2023/10/15 00:11:01;;;;;;;6.72;1.63;;;;;;;19.61;48.16;101802.72;16120660;19;131119;-46
2023/10/15 00:16:24;;;;;;;9.05;1.70;;;;;;;19.60;48.35;101803.78;16113076;19;130988;-46
2023/10/15 00:21:46;;;;;;;9.45;2.05;;;;;;;19.59;48.36;101824.28;16114829;19;131677;-46
2023/10/15 00:27:08;;;;;;;9.35;1.92;;;;;;;19.57;47.85;101820.91;16109115;19;131010;-46
2023/10/15 00:32:30;;;;;;;5.47;1.42;;;;;;;19.56;48.31;101815.59;16115642;19;130435;-46
2023/10/15 00:37:55;;;;;;;4.97;1.20;;;;;;;19.54;48.08;101813.06;16115098;19;130696;-48
2023/10/15 00:43:17;;;;;;;5.40;1.50;;;;;;;19.53;48.22;101811.34;16117903;19;130407;-46
2023/10/15 00:48:40;;;;;;;8.57;1.67;;;;;;;19.52;48.28;101820.75;16117749;19;129745;-45
2023/10/15 00:54:09;;;;;;;5.82;1.40;;;;;;;19.51;48.11;101836.53;16114056;19;130983;-49
2023/10/15 00:59:43;;;;;;;8.25;1.75;;;;;;;19.52;48.28;101826.31;16113041;19;130272;-45
2023/10/15 01:05:05;;;;;;;8.95;1.52;;;;;;;19.49;47.90;101826.75;16110853;19;130796;-46
2023/10/15 01:10:32;;;;;;;3.58;1.30;;;;;;;19.49;48.25;101826.75;16114011;19;129403;-46
2023/10/15 01:16:02;;;;;;;7.80;1.10;;;;;;;19.48;48.13;101822.28;16114529;19;129962;-46
2023/10/15 01:21:29;;;;;;;6.40;1.30;;;;;;;19.47;47.91;101817.81;16117257;19;129643;-49
2023/10/15 01:32:27;;;;;;;7.60;1.47;;;;;;;19.45;47.88;101825.50;16109305;19;129733;-45
2023/10/15 01:37:59;;;;;;;3.78;1.00;;;;;;;19.44;48.04;101821.06;16114800;19;131509;-45
2023/10/15 01:43:22;;;;;;;2.67;1.05;;;;;;;19.43;48.24;101820.22;16110400;19;131246;-46
2023/10/15 01:48:45;;;;;;;5.28;1.00;;;;;;;19.42;48.02;101820.44;16114606;19;131377;-47
2023/10/15 01:54:10;;;;;;;2.05;0.65;;;;;;;19.41;48.09;101807.66;16112471;19;130164;-47
2023/10/15 01:59:44;;;;;;;4.07;1.27;;;;;;;19.40;48.09;101817.06;16111564;19;131122;-45
2023/10/15 02:05:27;;;;;;;4.80;1.00;;;;;;;19.40;47.94;101823.44;16110080;19;129916;-44
2023/10/15 02:10:49;;;;;;;3.35;0.90;;;;;;;19.38;47.91;101823.69;16108798;19;131680;-49
2023/10/15 02:16:16;;;;;;;2.78;0.90;;;;;;;19.36;48.07;101836.91;16113117;19;129997;-45
2023/10/15 02:21:49;;;;;;;3.35;0.80;;;;;;;19.36;47.98;101825.81;16113916;19;131115;-44
2023/10/15 02:27:11;;;;;;;2.80;0.90;;;;;;;19.35;47.91;101821.34;16110295;19;130537;-45
2023/10/15 02:32:33;;;;;;;3.08;0.80;;;;;;;19.34;48.09;101822.44;16107339;19;130932;-47
2023/10/15 02:37:58;;;;;;;2.60;0.75;;;;;;;19.33;47.85;101820.72;16111662;19;130306;-47
2023/10/15 02:43:20;;;;;;;1.35;0.60;;;;;;;19.32;47.88;101816.25;16106326;19;130938;-47
2023/10/15 02:48:44;;;;;;;4.15;0.90;;;;;;;19.31;48.24;101825.69;16105390;19;130968;-48
2023/10/15 02:54:18;;;;;;;1.83;0.80;;;;;;;19.31;47.82;101814.59;16108793;19;131802;-45
2023/10/15 02:59:50;;;;;;;3.30;1.00;;;;;;;19.29;47.84;101813.09;16102034;19;129922;-46
2023/10/15 03:05:14;;;;;;;1.45;0.60;;;;;;;19.30;48.05;101815.66;16106970;19;130731;-45
2023/10/15 03:10:47;;;;;;;1.52;0.60;;;;;;;19.30;48.26;101817.56;16107050;19;129623;-51
2023/10/15 03:16:09;;;;;;;3.03;0.63;;;;;;;19.28;47.81;101817.81;16101946;19;131056;-48
2023/10/15 03:21:36;;;;;;;2.17;0.63;;;;;;;19.28;47.79;101825.28;16110663;19;129647;-45
2023/10/15 03:26:58;;;;;;;3.78;1.20;;;;;;;19.26;48.26;101828.28;16106581;19;130904;-45
2023/10/15 03:32:23;;;;;;;2.70;0.65;;;;;;;19.27;47.90;101823.56;16099151;19;129851;-46
2023/10/15 03:37:46;;;;;;;2.20;0.70;;;;;;;19.27;48.32;101829.97;16103903;19;129634;-47
2023/10/15 03:43:15;;;;;;;1.70;0.65;;;;;;;19.24;48.23;101824.88;16105829;19;130470;-46
2023/10/15 03:48:47;;;;;;;3.00;0.73;;;;;;;19.24;48.16;101824.88;16105751;19;130646;-45
2023/10/15 03:54:13;;;;;;;1.55;0.80;;;;;;;19.24;48.02;101829.59;16103030;19;130086;-45
2023/10/15 03:59:53;;;;;;;1.00;0.70;;;;;;;19.22;47.82;101829.81;16109728;19;130268;-45
2023/10/15 04:05:20;;;;;;;1.92;0.68;;;;;;;19.20;47.91;101834.72;16102679;19;130026;-46
2023/10/15 04:10:42;;;;;;;3.25;0.55;;;;;;;19.20;48.05;101841.13;16108706;19;130579;-48
2023/10/15 04:16:04;;;;;;;1.90;0.60;;;;;;;19.19;47.67;101833.88;16104160;19;130295;-46
2023/10/15 04:21:26;;;;;;;2.65;0.52;;;;;;;19.19;47.68;101844.13;16099677;19;131554;-46
2023/10/15 04:26:48;;;;;;;0.68;0.40;;;;;;;19.19;47.95;101855.22;16104200;19;130571;-46
2023/10/15 04:32:12;;;;;;;1.00;0.45;;;;;;;19.17;48.02;101846.28;16099987;19;131295;-46
2023/10/15 04:37:36;;;;;;;2.05;0.60;;;;;;;19.17;47.83;101851.81;16109726;19;130992;-46
2023/10/15 04:42:59;;;;;;;1.58;0.38;;;;;;;19.16;47.83;101850.13;16117313;19;129872;-47
2023/10/15 04:48:41;;;;;;;1.38;0.43;;;;;;;19.16;48.06;101852.88;16115906;19;131099;-45
2023/10/15 04:54:03;;;;;;;1.95;0.57;;;;;;;19.14;47.90;101841.16;16117089;19;129643;-45
2023/10/15 04:59:24;;;;;;;2.45;0.50;;;;;;;19.13;47.75;101839.47;16110024;19;130108;-45
2023/10/15 05:04:47;;;;;;;1.77;0.47;;;;;;;19.12;47.80;101846.09;16114881;19;131393;-45
2023/10/15 05:10:10;;;;;;;1.15;0.70;;;;;;;19.11;47.60;101852.72;16117547;19;130063;-48
2023/10/15 05:15:32;;;;;;;1.73;0.45;;;;;;;19.10;47.57;101842.69;16112290;19;130162;-48
2023/10/15 05:20:54;;;;;;;1.48;0.50;;;;;;;19.08;48.03;101843.75;16116262;19;130806;-45
2023/10/15 05:26:19;;;;;;;1.92;0.50;;;;;;;19.08;48.03;101848.47;16109909;19;130189;-45
2023/10/15 05:31:42;;;;;;;1.38;0.50;;;;;;;19.06;47.98;101867.25;16114031;19;129620;-45
2023/10/15 05:37:04;;;;;;;1.30;0.50;;;;;;;19.05;47.86;101855.34;16111086;19;129930;-44
2023/10/15 05:42:26;;;;;;;0.45;0.30;;;;;;;19.06;47.63;101853.41;16109972;19;130699;-47
2023/10/15 05:47:48;;;;;;;1.92;0.40;;;;;;;19.05;47.67;101860.88;16115146;19;129476;-47
2023/10/15 05:53:10;;;;;;;1.77;0.60;;;;;;;19.05;47.53;101855.34;16108904;19;131421;-47
2023/10/15 05:58:32;;;;;;;2.17;0.47;;;;;;;19.03;47.57;101849.16;16111042;19;131199;-45
2023/10/15 06:03:54;;;;;;;0.95;0.40;;;;;;;19.03;47.71;101863.03;16108631;19;129659;-45
2023/10/15 06:09:17;;;;;;;1.52;0.50;;;;;;;19.02;47.77;101872.41;16112202;19;130577;-45
2023/10/15 06:14:38;;;;;;;2.17;0.60;;;;;;;19.03;47.54;101889.91;16111949;19;129723;-46
2023/10/15 06:20:13;;;;;;;2.65;0.95;;;;;;;19.01;48.00;101892.06;16112879;19;131421;-46
2023/10/15 06:25:38;;;;;;;1.88;0.43;;;;;;;19.00;47.76;101899.53;16110847;19;130332;-47
2023/10/15 06:31:00;;;;;;;1.00;0.50;;;;;;;18.98;47.88;101901.66;16105082;19;130816;-45
2023/10/15 06:36:23;;;;;;;2.10;0.35;;;;;;;18.96;47.21;101901.03;16103648;19;131345;-57
2023/10/15 06:41:45;;;;;;;1.10;0.40;;;;;;;18.93;47.56;101895.97;16114697;19;130580;-55
2023/10/15 06:47:08;;;;;;;2.22;0.30;;;;;;;;;;16113323;19;129505;-46
2023/10/15 06:52:30;;;;;;;1.52;0.47;;;;;;;18.93;47.42;101934.78;16108932;19;129574;-46
2023/10/15 06:57:53;;;;;;;3.38;0.50;;;;;;;;;;16109006;19;129391;-53
2023/10/15 07:03:15;;;;;;;3.20;0.40;;;;;;;18.97;46.88;101946.28;16105621;19;130485;-52
2023/10/15 07:08:38;;;;;;;1.83;0.70;;;;;;;19.04;46.50;101974.78;16105571;19;129924;-48
2023/10/15 07:14:00;;;;;;;1.50;0.63;;;;;;;19.05;46.96;101970.94;16105259;19;129736;-53
2023/10/15 07:19:22;;;;;;;1.77;0.50;;;;;;;19.05;46.40;101968.19;16106093;19;129396;-46
2023/10/15 07:24:44;;;;;;;3.45;0.70;;;;;;;19.04;46.68;101958.16;16106482;19;131863;-53
2023/10/15 07:30:08;;;;;;;1.40;0.45;;;;;;;19.03;46.90;101967.53;16106952;19;130508;-51
2023/10/15 07:35:32;;;;;;;4.05;0.40;;;;;;;19.02;46.60;101963.94;16104922;19;131137;-51
2023/10/15 07:40:57;;;;;;;5.45;0.50;;;;;;;19.06;46.48;101972.66;16105429;19;130504;-50
2023/10/15 07:46:22;;;;;;;2.92;0.70;;;;;;;19.14;46.67;101994.56;16105859;19;130913;-56
2023/10/15 07:51:44;;;;;;;1.65;0.50;;;;;;;19.30;46.39;101993.22;16102298;19;132372;-57
2023/10/15 07:57:07;;;;;;;4.82;0.65;;;;;;;20.23;45.29;102010.13;16104427;19;130527;-51
2023/10/15 08:02:29;;;;;;;2.92;0.63;;;;;;;20.96;43.80;102023.34;16103809;19;134506;-53
2023/10/15 08:07:52;;;;;;;11.85;0.93;;;;;;;21.91;42.42;102018.03;16100369;19;129913;-49
2023/10/15 08:13:14;;;;;;;6.07;0.63;;;;;;;22.52;41.39;102018.56;16108715;19;132400;-48
2023/10/15 08:18:36;;;;;;;8.38;1.35;;;;;;;22.29;40.55;102008.31;16116469;19;131219;-49
2023/10/15 08:23:58;;;;;;;12.15;1.00;;;;;;;21.91;41.16;102023.59;16120667;19;129769;-50
2023/10/15 08:29:20;;;;;;;5.25;0.90;;;;;;;21.65;41.33;102028.53;16111854;19;131060;-52
2023/10/15 08:34:45;;;;;;;4.30;0.75;;;;;;;21.70;41.11;102045.38;16114522;19;129613;-53
2023/10/15 08:40:07;;;;;;;;;;;;;;;21.73;40.95;102053.25;16112796;19;131086;-46
2023/10/15 08:45:30;;;;;;;5.20;0.93;;;;;;;21.60;41.34;102073.78;16111511;19;130151;-51
2023/10/15 08:51:00;;;;;;;3.97;0.90;;;;;;;21.46;42.01;102067.56;16108008;19;131867;-49
2023/10/15 08:56:25;;;;;;;6.18;0.80;;;;;;;21.29;42.20;102078.53;16115101;19;129624;-51
2023/10/15 09:01:50;;;;;;;6.20;1.00;;;;;;;21.13;42.69;102080.03;16107380;19;131735;-49
2023/10/15 09:07:15;;;;;;;10.03;0.90;;;;;;;21.03;43.26;102102.03;16111427;19;130497;-53
2023/10/15 09:12:36;;;;;;;6.50;0.80;;;;;;;20.92;43.46;102106.44;16113160;19;129969;-48
2023/10/15 09:17:59;;;;;;;3.00;0.98;;;;;;;20.81;43.86;102110.81;16113895;19;131258;-46
2023/10/15 09:23:24;;;;;;;2.70;0.82;;;;;;;20.70;43.87;102136.59;16113536;19;129656;-51
2023/10/15 09:28:46;;;;;;;3.65;0.70;;;;;;;20.57;44.56;102138.44;16114273;19;129993;-51
2023/10/15 09:34:11;;;;;;;4.88;1.10;;;;;;;20.47;44.40;102154.81;16112398;19;130302;-55
2023/10/15 09:39:34;;;;;;;4.15;0.95;;;;;;;20.38;44.98;102148.69;16116233;19;131263;-51
2023/10/15 09:44:56;;;;;;;6.95;1.00;;;;;;;20.32;45.45;102143.19;16114308;19;130553;-51
2023/10/15 09:50:20;;;;;;;4.22;0.70;;;;;;;20.23;44.92;102148.22;16115102;19;129475;-49
2023/10/15 09:55:42;;;;;;;5.65;1.23;;;;;;;20.09;44.07;102178.00;16116883;19;129396;-53
2023/10/15 10:01:09;;;;;;;27.85;3.20;;;;;;;19.94;43.58;102181.09;16114604;19;130470;-56
2023/10/15 10:06:50;;;;;;;13.25;2.22;;;;;;;19.86;43.00;102185.00;16114383;19;131193;-47
2023/10/15 10:12:36;;;;;;;6.78;1.40;;;;;;;19.84;42.77;102173.25;16113943;19;129483;-48
2023/10/15 10:17:59;;;;;;;21.98;2.33;;;;;;;19.81;42.96;102184.81;16113258;19;131268;-51
2023/10/15 10:23:22;;;;;;;17.25;2.00;;;;;;;19.84;43.10;102190.78;16111485;19;130517;-51
2023/10/15 10:29:01;;;;;;;26.88;2.88;;;;;;;19.89;43.38;102203.13;16113461;19;131228;-49
2023/10/15 10:34:30;;;;;;;19.15;1.90;;;;;;;19.94;43.59;102201.38;16111311;19;131622;-48
2023/10/15 10:39:52;;;;;;;17.02;1.73;;;;;;;19.98;43.52;102204.56;16111733;19;131733;-53
2023/10/15 10:45:50;;;;;;;20.35;2.40;;;;;;;20.05;43.60;102210.13;16112566;19;129802;-55
2023/10/15 10:51:18;;;;;;;12.50;1.85;;;;;;;20.06;44.13;102200.72;16118534;19;130837;-53
2023/10/15 10:56:40;;;;;;;10.40;2.08;;;;;;;20.11;44.27;102206.44;16123106;19;129708;-53
2023/10/15 11:02:06;;;;;;;9.38;1.40;;;;;;;20.14;43.76;102197.66;16113579;19;130407;-52
2023/10/15 11:07:36;;;;;;;11.93;1.77;;;;;;;20.14;44.08;102194.88;16115823;19;130025;-52
2023/10/15 11:12:58;;;;;;;8.93;1.42;;;;;;;20.11;44.23;102190.63;16111191;19;131555;-52
2023/10/15 11:18:24;;;;;;;10.80;1.15;;;;;;;20.12;44.45;102199.78;16103864;19;129711;-49
2023/10/15 11:23:48;;;;;;;;;;;;;;;20.06;44.38;102198.78;16104746;19;129473;-51
2023/10/15 11:29:12;;;;;;;6.15;1.70;;;;;;;20.09;44.32;102208.56;16097378;19;131070;-52
2023/10/15 11:34:35;;;;;;;11.10;1.20;;;;;;;20.05;44.32;102208.19;16099809;19;131898;-49
2023/10/15 11:39:57;;;;;;;10.35;1.17;;;;;;;20.04;44.14;102213.97;16106779;19;130806;-45
2023/10/15 11:45:42;;;;;;;15.82;1.60;;;;;;;20.05;44.81;102221.22;16107642;19;131379;-47
2023/10/15 11:51:08;;;;;;;8.40;1.70;;;;;;;20.07;44.37;102221.84;16118811;19;129794;-47
2023/10/15 11:56:31;;;;;;;9.80;1.17;;;;;;;20.14;44.78;102219.88;16121110;19;130269;-45
2023/10/15 12:01:53;;;;;;;10.80;1.38;;;;;;;20.22;44.36;102230.69;16121228;19;131354;-50
2023/10/15 12:07:21;;;;;;;8.07;1.63;;;;;;;20.29;44.17;102230.66;16118787;19;131398;-46
2023/10/15 12:12:43;;;;;;;9.07;1.38;;;;;;;20.36;44.31;102231.47;16119289;19;130148;-46
2023/10/15 12:18:05;;;;;;;9.48;1.38;;;;;;;20.43;44.32;102228.63;16118159;19;129872;-47
2023/10/15 12:23:28;;;;;;;10.23;1.20;;;;;;;20.50;44.06;102232.19;16120958;19;131063;-45
2023/10/15 12:28:51;;;;;;;13.18;1.52;;;;;;;20.56;44.43;102236.81;16120014;19;133434;-47
2023/10/15 12:34:14;;;;;;;8.63;1.40;;;;;;;20.60;44.78;102226.97;16108668;19;131092;-46
2023/10/15 12:39:40;;;;;;;10.07;1.30;;;;;;;20.64;44.98;102226.50;16109812;19;130590;-46
2023/10/15 12:45:09;;;;;;;6.88;1.30;;;;;;;20.67;44.93;102231.63;16110094;19;130540;-44
2023/10/15 12:50:31;;;;;;;14.13;1.30;;;;;;;20.70;45.05;102228.38;16118516;19;129748;-45
2023/10/15 12:55:54;;;;;;;8.45;1.30;;;;;;;20.73;45.03;102230.69;16113569;19;130614;-49
2023/10/15 13:01:20;;;;;;;9.35;1.35;;;;;;;20.75;44.96;102237.75;16110750;19;129400;-47
2023/10/15 13:06:42;;;;;;;9.18;1.17;;;;;;;20.70;44.86;102237.56;16117001;19;130831;-48
2023/10/15 13:12:09;;;;;;;10.40;1.45;;;;;;;20.73;44.74;102247.38;16107536;19;134987;-46
2023/10/15 13:17:31;;;;;;;12.95;1.75;;;;;;;20.74;44.84;102244.34;16108167;19;130400;-50
2023/10/15 13:22:53;;;;;;;9.35;1.40;;;;;;;20.75;44.83;102259.13;16116274;19;130074;-48
2023/10/15 13:28:16;;;;;;;9.40;2.15;;;;;;;20.75;44.97;102270.25;16117180;19;129943;-48
2023/10/15 13:33:40;;;;;;;8.02;1.20;;;;;;;20.76;45.18;102260.88;16105803;19;130093;-46
2023/10/15 13:39:02;;;;;;;10.82;1.33;;;;;;;20.78;45.14;102263.41;16112341;19;130394;-45
2023/10/15 13:44:26;;;;;;;14.00;1.92;;;;;;;20.76;45.60;102269.22;16113054;19;130254;-45
2023/10/15 13:49:48;;;;;;;12.68;1.45;;;;;;;20.80;45.43;102256.53;16107627;19;130979;-47
2023/10/15 13:55:12;;;;;;;10.18;1.10;;;;;;;20.85;45.63;102255.88;16108348;19;132265;-47
2023/10/15 14:00:37;;;;;;;9.75;1.52;;;;;;;20.89;45.56;102257.09;16113552;19;129914;-44
2023/10/15 14:05:59;;;;;;;9.18;1.38;;;;;;;20.93;45.73;102254.69;16110813;19;130029;-47
2023/10/15 14:11:21;;;;;;;11.40;1.50;;;;;;;20.97;45.81;102258.72;16104933;19;130715;-45
2023/10/15 14:16:45;;;;;;;21.90;1.35;;;;;;;20.96;44.92;102257.03;16103897;19;131615;-53
2023/10/15 14:22:08;;;;;;;9.32;1.45;;;;;;;20.94;45.08;102248.06;16107356;19;129689;-49
2023/10/15 14:27:29;;;;;;;16.35;2.10;;;;;;;20.98;44.74;102260.44;16103415;19;130019;-50
2023/10/15 14:32:54;;;;;;;16.27;1.90;;;;;;;21.00;44.62;102258.28;16101078;19;131242;-49
2023/10/15 14:38:17;;;;;;;15.20;1.52;;;;;;;21.01;44.51;102259.97;16106557;19;130144;-53
2023/10/15 14:43:38;;;;;;;9.15;1.45;;;;;;;21.04;44.35;102262.31;16107648;19;130297;-48
2023/10/15 14:49:01;;;;;;;7.15;1.35;;;;;;;21.07;43.88;102259.03;16104795;19;131035;-48
2023/10/15 14:54:23;;;;;;;12.88;1.73;;;;;;;21.09;44.04;102261.63;16110423;19;130982;-49
2023/10/15 14:59:46;;;;;;;9.55;1.48;;;;;;;21.11;43.99;102260.28;16111835;19;129753;-47
2023/10/15 15:05:08;;;;;;;7.35;1.02;;;;;;;21.14;43.77;102261.75;16107743;19;131227;-49
2023/10/15 15:10:34;;;;;;;11.07;1.15;;;;;;;21.15;43.90;102264.31;16111165;19;130648;-48
2023/10/15 15:15:56;;;;;;;5.63;1.10;;;;;;;21.16;43.85;102274.38;16100569;19;132134;-52
2023/10/15 15:21:20;;;;;;;8.50;1.25;;;;;;;21.16;44.09;102282.72;16101293;19;131771;-51
2023/10/15 15:26:43;;;;;;;7.53;1.02;;;;;;;21.15;43.69;102294.06;16104518;19;131669;-50
2023/10/15 15:32:06;;;;;;;4.03;1.10;;;;;;;21.05;44.03;102284.31;16101940;19;130804;-49
2023/10/15 15:37:28;;;;;;;7.70;1.00;;;;;;;20.99;43.74;102284.41;16107620;19;131117;-48
2023/10/15 15:42:52;;;;;;;7.30;0.90;;;;;;;20.89;44.17;102285.78;16102680;19;130659;-49
2023/10/15 15:48:14;;;;;;;7.25;1.30;;;;;;;20.83;44.50;102300.59;16103627;19;129539;-47
2023/10/15 15:53:36;;;;;;;3.70;0.93;;;;;;;20.74;44.12;102283.28;16102279;19;130538;-46
2023/10/15 15:58:58;;;;;;;7.13;0.90;;;;;;;20.65;44.55;102284.66;16105148;19;130092;-48
2023/10/15 16:04:20;;;;;;;7.65;1.35;;;;;;;20.56;44.61;102286.03;16103192;19;130737;-48
2023/10/15 16:09:42;;;;;;;7.78;1.90;;;;;;;20.48;44.56;102289.94;16107183;19;129516;-47
2023/10/15 16:15:07;;;;;;;7.85;3.13;;;;;;;20.40;44.48;102290.22;16098219;19;130026;-46
2023/10/15 16:20:29;;;;;;;;;;;;;;;20.32;44.21;102290.47;16103959;19;135226;-49
2023/10/15 16:25:52;;;;;;;13.73;3.25;;;;;;;20.29;44.73;102286.22;16105555;19;129893;-48
2023/10/15 16:31:14;;;;;;;10.40;4.35;;;;;;;20.23;44.73;102287.16;16104575;19;131234;-47
2023/10/15 16:36:36;;;;;;;11.82;4.40;;;;;;;20.19;44.64;102295.06;16118461;19;129904;-48
2023/10/15 16:41:59;;;;;;;10.75;4.90;;;;;;;20.18;44.61;102301.72;16113063;19;130426;-46
2023/10/15 16:47:21;;;;;;;9.32;4.50;;;;;;;20.19;44.63;102316.44;16111013;19;129919;-46
2023/10/15 16:52:43;;;;;;;13.32;5.05;;;;;;;20.16;44.90;102320.53;16110293;19;130787;-47
2023/10/15 16:58:05;;;;;;;17.70;7.15;;;;;;;20.11;44.62;102335.09;16106280;19;130157;-53
2023/10/15 17:03:28;;;;;;;17.08;7.18;;;;;;;20.08;45.19;102337.44;16112765;19;130543;-47
2023/10/15 17:08:50;;;;;;;24.55;8.82;;;;;;;20.15;44.90;102346.63;16115157;19;129670;-48
2023/10/15 17:14:12;;;;;;;21.00;8.55;;;;;;;20.27;44.83;102347.59;16113650;19;130197;-48
2023/10/15 17:19:34;;;;;;;24.95;8.50;;;;;;;20.43;44.32;102349.00;16112715;19;129383;-51
2023/10/15 17:24:57;;;;;;;36.88;8.90;;;;;;;20.56;44.68;102345.25;16121005;19;129010;-50
2023/10/15 17:30:19;;;;;;;21.48;7.68;;;;;;;20.78;44.84;102360.75;16110842;19;130430;-50
2023/10/15 17:35:41;;;;;;;26.35;7.38;;;;;;;21.13;44.01;102369.44;16114523;19;129564;-49
2023/10/15 17:41:03;;;;;;;22.20;6.25;;;;;;;21.44;43.66;102369.56;16111753;19;130098;-49
2023/10/15 17:46:24;;;;;;;23.85;6.38;;;;;;;21.64;43.47;102369.38;16118323;19;134755;-51
2023/10/15 17:51:47;;;;;;;19.08;5.88;;;;;;;21.71;43.69;102380.47;16116755;19;130509;-49
2023/10/15 17:57:09;;;;;;;20.88;5.65;;;;;;;21.70;43.70;102378.75;16111993;19;130733;-51
2023/10/15 18:02:31;;;;;;;15.80;4.65;;;;;;;21.63;43.92;102376.88;16111017;19;134799;-50
2023/10/15 18:07:53;;;;;;;14.13;5.40;;;;;;;21.54;43.82;102388.56;16114711;19;130789;-53
2023/10/15 18:13:18;;;;;;;17.88;4.82;;;;;;;21.44;44.28;102391.84;16115307;19;130774;-54
2023/10/15 18:18:40;;;;;;;19.17;5.03;;;;;;;21.34;44.29;102396.00;16115570;19;129459;-51
2023/10/15 18:24:02;;;;;;;12.40;3.75;;;;;;;21.25;44.92;102396.53;16113910;19;129427;-49
2023/10/15 18:29:24;;;;;;;13.00;3.90;;;;;;;21.13;44.92;102394.50;16111088;19;133442;-53
2023/10/15 18:34:46;;;;;;;15.68;4.50;;;;;;;21.06;44.88;102390.91;16113640;19;132177;-50
2023/10/15 18:40:09;;;;;;;19.30;4.03;;;;;;;21.00;45.45;102397.38;16113946;19;130314;-53
2023/10/15 18:45:37;;;;;;;12.55;3.45;;;;;;;20.97;45.69;102403.41;16111019;19;130279;-49
2023/10/15 18:50:59;;;;;;;11.95;3.60;;;;;;;20.95;45.72;102402.75;16105215;19;130104;-53
2023/10/15 18:56:40;;;;;;;10.88;3.28;;;;;;;21.15;45.43;102405.38;16103011;19;131074;-50
2023/10/15 19:02:02;;;;;;;36.35;4.97;;;;;;;21.44;45.08;102409.38;16108300;19;130840;-52
2023/10/15 19:07:25;;;;;;;31.42;4.93;;;;;;;21.75;44.59;102399.25;16110163;19;134674;-49
2023/10/15 19:12:48;;;;;;;17.75;3.63;;;;;;;22.01;44.55;102396.38;16104565;19;131838;-52
2023/10/15 19:18:10;;;;;;;18.10;3.83;;;;;;;22.18;44.00;102407.72;16112858;19;130898;-52
2023/10/15 19:23:32;;;;;;;17.30;2.97;;;;;;;22.27;43.95;102409.16;16108056;19;131455;-54
2023/10/15 19:28:54;;;;;;;18.42;3.30;;;;;;;22.38;43.83;102413.94;16109115;19;130352;-53
2023/10/15 19:34:17;;;;;;;20.55;2.97;;;;;;;22.51;43.99;102412.88;16109595;19;130624;-50
2023/10/15 19:39:39;;;;;;;19.52;3.10;;;;;;;22.65;43.70;102430.25;16109440;19;130192;-55
2023/10/15 19:45:10;;;;;;;15.53;3.10;;;;;;;22.80;43.14;102434.53;16107311;19;130880;-51
2023/10/15 19:50:32;;;;;;;18.00;2.92;;;;;;;22.87;43.25;102426.94;16106550;19;131619;-52
2023/10/15 19:55:54;;;;;;;17.50;3.15;;;;;;;22.93;43.33;102430.75;16107849;19;130121;-55
2023/10/15 20:01:17;;;;;;;16.13;2.45;;;;;;;22.93;43.39;102430.75;16108887;19;130201;-58
2023/10/15 20:06:39;;;;;;;21.98;2.97;;;;;;;22.88;43.37;102426.69;16113185;19;130477;-52
2023/10/15 20:12:01;;;;;;;13.98;2.67;;;;;;;22.82;43.18;102430.44;16120697;19;129344;-51
2023/10/15 20:17:23;;;;;;;11.18;2.55;;;;;;;22.74;43.50;102420.47;16123550;19;129522;-49
2023/10/15 20:22:45;;;;;;;21.45;3.05;;;;;;;22.63;44.00;102426.00;16117742;19;130756;-54
2023/10/15 20:28:08;;;;;;;7.82;2.13;;;;;;;22.49;43.98;102425.34;16115254;19;130122;-54
2023/10/15 20:33:30;;;;;;;13.32;1.77;;;;;;;22.31;44.17;102427.09;16121016;19;133341;-53
2023/10/15 20:38:52;;;;;;;9.52;1.90;;;;;;;22.16;44.50;102426.59;16116270;19;131552;-54
2023/10/15 20:44:14;;;;;;;13.23;1.90;;;;;;;22.01;44.42;102427.88;16105080;19;131837;-55
2023/10/15 20:49:36;;;;;;;11.35;1.95;;;;;;;21.87;44.90;102431.91;16116951;19;131005;-51
2023/10/15 20:54:58;;;;;;;10.65;1.95;;;;;;;21.75;45.11;102421.53;16116903;19;130814;-60
2023/10/15 21:00:20;;;;;;;8.07;1.50;;;;;;;21.65;45.38;102416.50;16119606;19;129200;-56
2023/10/15 21:05:43;;;;;;;13.80;1.95;;;;;;;21.53;45.53;102412.75;16121653;19;130781;-51
2023/10/15 21:11:05;;;;;;;11.30;1.70;;;;;;;21.45;45.55;102416.66;16121329;19;133139;-53
2023/10/15 21:16:27;;;;;;;9.27;1.80;;;;;;;21.35;45.81;102419.13;16116306;19;130274;-49
2023/10/15 21:21:48;;;;;;;7.55;1.63;;;;;;;21.26;45.52;102420.50;16118813;19;129903;-53
2023/10/15 21:27:11;;;;;;;9.95;1.50;;;;;;;21.17;46.05;102417.97;16112656;19;129548;-49
2023/10/15 21:32:33;;;;;;;11.75;1.73;;;;;;;21.10;46.02;102411.63;16117752;19;129464;-54
2023/10/15 21:37:57;;;;;;;9.55;1.40;;;;;;;21.02;46.36;102418.34;16116553;19;129373;-50
2023/10/15 21:43:19;;;;;;;11.70;2.10;;;;;;;20.96;46.40;102407.25;16114338;19;130712;-52
2023/10/15 21:48:41;;;;;;;8.10;1.77;;;;;;;20.88;46.53;102400.91;16112477;19;129453;-51
2023/10/15 21:54:04;;;;;;;6.03;1.65;;;;;;;20.83;46.37;102408.22;16113474;19;131753;-47
2023/10/15 21:59:26;;;;;;;6.05;1.50;;;;;;;20.77;46.49;102407.19;16116638;19;130454;-51
2023/10/15 22:04:48;;;;;;;12.55;1.98;;;;;;;20.74;46.38;102396.47;16113977;19;129735;-49
2023/10/15 22:10:10;;;;;;;4.18;1.63;;;;;;;20.69;46.64;102399.06;16116481;19;135274;-47
2023/10/15 22:15:32;;;;;;;7.95;1.70;;;;;;;20.65;46.43;102403.41;16108444;19;131476;-50
2023/10/15 22:20:54;;;;;;;5.78;1.50;;;;;;;20.61;46.68;102405.78;16115116;19;129597;-47
2023/10/15 22:26:25;;;;;;;6.53;1.50;;;;;;;20.57;46.45;102385.06;16112615;19;130633;-49
2023/10/15 22:31:48;;;;;;;6.20;1.17;;;;;;;20.54;46.50;102386.38;16107042;19;129955;-55
2023/10/15 22:37:12;;;;;;;5.28;1.20;;;;;;;20.50;46.75;102389.78;16107315;19;130756;-50
2023/10/15 22:42:34;;;;;;;4.65;1.30;;;;;;;20.47;46.77;102381.91;16111890;19;130179;-49
2023/10/15 22:47:56;;;;;;;6.78;1.30;;;;;;;20.43;46.62;102381.50;16109399;19;129603;-49
2023/10/15 22:53:19;;;;;;;4.45;1.02;;;;;;;20.40;46.83;102377.22;16105438;19;130961;-50
2023/10/15 22:58:41;;;;;;;4.18;1.30;;;;;;;20.38;46.69;102378.53;16110152;19;130952;-51
2023/10/15 23:04:04;;;;;;;3.58;1.13;;;;;;;20.34;46.91;102380.06;16110067;19;130188;-49
2023/10/15 23:09:26;;;;;;;4.38;0.98;;;;;;;20.31;46.99;102377.75;16112197;19;129453;-48
2023/10/15 23:14:48;;;;;;;3.17;1.10;;;;;;;20.27;46.69;102375.41;16110265;19;131698;-48
2023/10/15 23:25:45;;;;;;;3.45;1.35;;;;;;;20.21;47.09;102372.66;16110866;19;131821;-50
2023/10/15 23:31:10;;;;;;;3.55;1.02;;;;;;;20.20;47.06;102373.72;16104788;19;130207;-51
2023/10/15 23:36:34;;;;;;;3.37;1.10;;;;;;;20.17;46.69;102371.38;16100931;19;129658;-51
2023/10/15 23:41:56;;;;;;;3.80;1.23;;;;;;;20.15;46.97;102374.41;16108912;19;129437;-47
2023/10/15 23:47:18;;;;;;;2.88;0.75;;;;;;;20.12;46.86;102372.06;16117963;19;131019;-49
2023/10/15 23:52:43;;;;;;;4.47;1.08;;;;;;;20.09;46.70;102362.25;16123414;19;129439;-52
2023/10/15 23:58:09;;;;;;;3.78;1.20;;;;;;;20.06;47.30;102359.91;16120747;19;130916;-50
